Time;durP1;ratioP1;P1;durP2;ratioP2;P2;SDS_P1;SDS_P2;PMS_P1;PMS_P2;Temp;Humidity;BMP_temperature;BMP_pressure;BME280_temperature;BME280_humidity;BME280_pressure;Samples;Min_cycle;Max_cycle;Signal;HPM_P1;HPM_P2
2021/09/10 00:01:12;;;;;;;7.97;6.03;;;21.30;99.90;;;;;;4994535;28;20165;-88
2021/09/10 00:03:38;;;;;;;6.28;5.78;;;21.30;99.90;;;;;;4994985;28;20173;-90
2021/09/10 00:06:04;;;;;;;6.68;5.85;;;21.20;99.90;;;;;;4994604;28;20177;-82
2021/09/10 00:08:29;;;;;;;7.22;5.43;;;21.20;99.90;;;;;;4993211;28;20680;-82
2021/09/10 00:10:55;;;;;;;6.57;5.93;;;21.30;99.90;;;;;;4993373;28;20177;-83
2021/09/10 00:13:21;;;;;;;6.88;6.38;;;21.30;99.90;;;;;;4993434;28;20521;-82
2021/09/10 00:15:46;;;;;;;10.65;6.25;;;21.30;99.90;;;;;;4994337;28;20183;-87
2021/09/10 00:18:12;;;;;;;7.28;6.28;;;21.40;99.90;;;;;;4994347;28;20243;-83
2021/09/10 00:20:37;;;;;;;7.95;5.82;;;21.30;99.90;;;;;;4993964;28;20268;-82
2021/09/10 00:23:03;;;;;;;7.40;6.72;;;21.20;99.90;;;;;;4994419;28;20176;-83
2021/09/10 00:25:29;;;;;;;9.32;6.10;;;21.30;99.90;;;;;;4992816;28;20239;-92
2021/09/10 00:27:55;;;;;;;6.38;5.60;;;21.20;99.90;;;;;;4994304;28;20727;-84
2021/09/10 00:30:20;;;;;;;6.03;5.53;;;21.20;99.90;;;;;;4991477;28;20196;-83
2021/09/10 00:32:46;;;;;;;7.10;6.38;;;21.30;99.90;;;;;;4992944;28;20165;-90
2021/09/10 00:35:12;;;;;;;7.05;5.93;;;21.30;99.90;;;;;;4993545;28;20216;-82
2021/09/10 00:37:38;;;;;;;12.90;6.18;;;21.10;99.90;;;;;;4994116;28;20165;-83
2021/09/10 00:40:08;;;;;;;6.05;5.45;;;21.10;99.90;;;;;;4992891;28;20540;-85
2021/09/10 00:42:33;;;;;;;9.40;5.95;;;21.10;99.90;;;;;;4992703;28;20608;-91
2021/09/10 00:44:59;;;;;;;8.50;5.28;;;21.20;99.90;;;;;;4992431;28;20244;-82
2021/09/10 00:47:25;;;;;;;11.65;5.70;;;21.10;99.90;;;;;;4992417;28;20173;-92
2021/09/10 00:49:52;;;;;;;5.43;4.97;;;21.10;99.90;;;;;;4992862;28;20208;-91
2021/09/10 00:52:18;;;;;;;8.52;5.65;;;21.10;99.90;;;;;;4993097;28;20549;-92
2021/09/10 00:54:44;;;;;;;7.38;5.60;;;21.20;99.90;;;;;;4992737;28;20184;-83
2021/09/10 00:57:10;;;;;;;6.00;5.40;;;21.20;99.90;;;;;;4993597;28;20173;-86
2021/09/10 00:59:36;;;;;;;5.85;5.28;;;21.10;99.90;;;;;;4992532;28;20193;-84
2021/09/10 01:02:02;;;;;;;8.02;5.32;;;21.10;99.90;;;;;;4992927;28;20209;-83
2021/09/10 01:04:29;;;;;;;6.57;5.15;;;21.10;99.90;;;;;;4992577;28;20231;-88
2021/09/10 01:06:56;;;;;;;7.20;4.97;;;21.10;99.90;;;;;;4993201;28;20216;-93
2021/09/10 01:09:22;;;;;;;5.85;5.25;;;21.10;99.90;;;;;;4993301;28;20197;-91
2021/09/10 01:11:50;;;;;;;5.30;4.80;;;21.10;99.90;;;;;;4993002;28;20192;-83
2021/09/10 01:14:17;;;;;;;5.85;4.93;;;21.20;99.90;;;;;;4992701;28;20173;-84
2021/09/10 01:16:44;;;;;;;5.22;4.72;;;21.10;99.90;;;;;;4994192;28;20175;-92
2021/09/10 01:19:38;;;;;;;6.97;4.88;;;21.00;99.90;;;;;;4992581;28;20196;-92
2021/09/10 01:22:05;;;;;;;5.68;4.95;;;21.00;99.90;;;;;;4992406;28;20169;-91
2021/09/10 01:25:06;;;;;;;7.60;4.40;;;21.10;99.90;;;;;;4992447;28;20304;-84
2021/09/10 01:27:32;;;;;;;6.93;4.72;;;21.10;99.90;;;;;;4993512;28;20175;-86
2021/09/10 01:29:59;;;;;;;5.57;5.15;;;21.20;99.90;;;;;;4991667;28;20220;-83
2021/09/10 01:32:26;;;;;;;5.55;5.05;;;21.30;99.90;;;;;;4992360;28;20267;-87
2021/09/10 01:34:51;;;;;;;5.25;4.75;;;21.30;99.90;;;;;;4993662;28;20626;-92
2021/09/10 01:37:17;;;;;;;7.30;5.25;;;21.20;99.90;;;;;;4993754;28;20173;-91
2021/09/10 01:39:43;;;;;;;6.30;5.38;;;21.30;99.90;;;;;;4993935;28;20229;-93
2021/09/10 01:42:09;;;;;;;5.40;4.90;;;21.10;99.90;;;;;;4994280;28;20660;-84
2021/09/10 01:44:34;;;;;;;7.45;4.53;;;20.90;99.90;;;;;;4996185;28;20193;-90
2021/09/10 01:47:00;;;;;;;7.22;5.53;;;20.90;99.90;;;;;;4996879;28;20184;-91
2021/09/10 01:49:26;;;;;;;7.68;5.15;;;20.80;99.90;;;;;;4996880;28;20190;-85
2021/09/10 01:51:51;;;;;;;5.20;4.80;;;20.80;99.90;;;;;;4997169;28;20173;-90
2021/09/10 01:54:17;;;;;;;7.65;4.68;;;20.90;99.90;;;;;;4996860;28;20185;-83
2021/09/10 01:56:42;;;;;;;9.73;4.50;;;20.80;99.90;;;;;;4995494;28;20188;-83
2021/09/10 01:59:08;;;;;;;5.57;4.93;;;20.80;99.90;;;;;;4995549;28;20185;-87
2021/09/10 02:01:35;;;;;;;5.78;4.68;;;21.00;99.90;;;;;;4997298;28;20537;-91
2021/09/10 02:04:01;;;;;;;5.38;4.78;;;21.00;99.90;;;;;;4995759;28;20197;-83
2021/09/10 02:06:27;;;;;;;5.68;4.60;;;21.00;99.90;;;;;;4997627;28;20556;-83
2021/09/10 02:08:53;;;;;;;5.13;4.63;;;21.10;99.90;;;;;;4997033;28;20180;-83
2021/09/10 02:11:19;;;;;;;5.00;4.60;;;21.10;99.90;;;;;;4997329;28;20200;-84
2021/09/10 02:13:45;;;;;;;9.15;4.95;;;21.00;99.90;;;;;;4995924;28;20188;-93
2021/09/10 02:16:13;;;;;;;7.95;4.80;;;21.00;99.90;;;;;;4997215;28;20558;-93
2021/09/10 02:18:39;;;;;;;5.03;4.53;;;20.80;99.90;;;;;;4996183;28;20255;-91
2021/09/10 02:21:05;;;;;;;4.90;4.38;;;20.70;99.90;;;;;;4997112;28;20192;-90
2021/09/10 02:23:31;;;;;;;4.75;4.20;;;20.90;99.90;;;;;;4994972;28;20173;-83
2021/09/10 02:25:57;;;;;;;5.05;4.53;;;21.10;99.90;;;;;;4995408;28;20208;-85
2021/09/10 02:28:24;;;;;;;5.07;3.92;;;21.00;99.90;;;;;;4995998;28;20676;-84
2021/09/10 02:30:49;;;;;;;6.18;4.55;;;21.00;99.90;;;;;;4995056;28;20185;-93
2021/09/10 02:33:15;;;;;;;4.80;4.03;;;20.90;99.90;;;;;;4996266;28;20173;-92
2021/09/10 02:35:41;;;;;;;10.18;4.97;;;20.80;99.90;;;;;;4995203;28;20169;-84
2021/09/10 02:38:07;;;;;;;5.10;4.07;;;20.90;99.90;;;;;;4994807;28;20657;-83
2021/09/10 02:40:33;;;;;;;6.07;4.70;;;20.90;99.90;;;;;;4995629;28;20728;-83
2021/09/10 02:42:58;;;;;;;7.72;4.93;;;20.90;99.90;;;;;;4995514;28;20176;-83
2021/09/10 02:45:24;;;;;;;7.35;5.05;;;20.80;99.90;;;;;;4996141;28;20209;-82
2021/09/10 02:47:50;;;;;;;4.97;4.45;;;20.80;99.90;;;;;;4994670;28;20216;-82
2021/09/10 02:50:16;;;;;;;6.03;4.90;;;20.80;99.90;;;;;;4996295;28;20173;-83
2021/09/10 02:52:41;;;;;;;8.68;5.28;;;20.80;99.90;;;;;;4995167;28;20634;-90
2021/09/10 02:55:07;;;;;;;6.80;4.07;;;21.00;99.90;;;;;;4994819;28;20545;-90
2021/09/10 02:57:34;;;;;;;9.00;4.70;;;21.00;99.90;;;;;;4994956;28;20188;-89
2021/09/10 03:00:00;;;;;;;7.65;5.00;;;21.00;99.90;;;;;;4997173;28;20169;-90
2021/09/10 03:02:25;;;;;;;6.78;4.72;;;20.80;99.90;;;;;;4996316;28;20177;-87
2021/09/10 03:04:51;;;;;;;6.32;5.03;;;20.80;99.90;;;;;;4995561;28;20246;-93
2021/09/10 03:07:17;;;;;;;5.20;4.70;;;20.80;99.90;;;;;;4994261;28;20170;-90
2021/09/10 03:09:43;;;;;;;8.55;5.10;;;20.80;99.90;;;;;;4994183;28;20670;-90
2021/09/10 03:12:09;;;;;;;5.45;4.22;;;20.80;99.90;;;;;;4995560;28;20169;-83
2021/09/10 03:14:34;;;;;;;6.88;4.80;;;20.70;99.90;;;;;;4995742;28;20575;-92
2021/09/10 03:17:01;;;;;;;5.63;5.10;;;20.80;99.90;;;;;;4995548;28;20252;-92
2021/09/10 03:19:27;;;;;;;8.10;4.93;;;20.90;99.90;;;;;;4995273;28;20275;-83
2021/09/10 03:21:53;;;;;;;9.82;5.03;;;21.00;99.90;;;;;;4994973;28;20168;-91
2021/09/10 03:24:19;;;;;;;5.70;5.05;;;21.00;99.90;;;;;;4996033;28;20287;-91
2021/09/10 03:26:45;;;;;;;6.07;4.93;;;21.00;99.90;;;;;;4995140;28;20174;-92
2021/09/10 03:29:12;;;;;;;8.93;5.47;;;20.90;99.90;;;;;;4994669;28;20666;-85
2021/09/10 03:31:38;;;;;;;10.75;5.72;;;20.80;99.90;;;;;;4995070;28;20511;-83
2021/09/10 03:34:04;;;;;;;13.07;5.60;;;20.80;99.90;;;;;;4995245;28;20642;-91
2021/09/10 03:36:30;;;;;;;8.43;5.57;;;20.70;99.90;;;;;;4995408;28;20227;-83
2021/09/10 03:38:55;;;;;;;6.30;5.68;;;20.80;99.90;;;;;;5003774;28;20291;-82
2021/09/10 03:41:21;;;;;;;10.55;7.00;;;20.60;99.90;;;;;;5004947;28;20165;-88
2021/09/10 03:43:49;;;;;;;8.05;5.70;;;20.80;99.90;;;;;;5009405;28;20526;-90
2021/09/10 03:46:15;;;;;;;9.77;6.32;;;20.90;99.90;;;;;;5005175;28;20185;-92
2021/09/10 03:48:41;;;;;;;9.35;6.57;;;20.60;99.90;;;;;;4995922;28;20193;-83
2021/09/10 03:51:07;;;;;;;6.82;5.97;;;20.70;99.90;;;;;;4994384;28;20183;-91
2021/09/10 03:53:32;;;;;;;13.48;5.38;;;20.70;99.90;;;;;;4996599;28;20165;-90
2021/09/10 03:55:58;;;;;;;11.15;6.80;;;20.70;99.90;;;;;;4996320;28;20169;-90
2021/09/10 03:58:24;;;;;;;10.48;6.32;;;20.80;99.90;;;;;;4996351;28;20209;-91
2021/09/10 04:00:49;;;;;;;9.27;5.97;;;20.50;99.90;;;;;;4994044;28;20272;-83
2021/09/10 04:03:15;;;;;;;9.70;6.57;;;20.50;99.90;;;;;;4994608;28;20165;-85
2021/09/10 04:05:41;;;;;;;11.85;6.72;;;20.40;99.90;;;;;;4992951;28;20299;-83
2021/09/10 04:08:06;;;;;;;6.10;5.50;;;20.50;99.90;;;;;;4993454;28;20271;-90
2021/09/10 04:10:32;;;;;;;16.65;6.63;;;20.60;99.90;;;;;;4993399;28;20184;-85
2021/09/10 04:12:58;;;;;;;14.43;6.93;;;20.80;99.90;;;;;;4993420;28;20165;-83
2021/09/10 04:15:23;;;;;;;9.75;6.72;;;20.70;99.90;;;;;;4994296;28;20192;-87
2021/09/10 04:17:49;;;;;;;16.42;6.88;;;20.60;99.90;;;;;;4992836;28;20644;-83
2021/09/10 04:20:15;;;;;;;15.73;5.85;;;20.70;99.90;;;;;;4994059;28;20177;-85
2021/09/10 04:22:41;;;;;;;7.07;6.10;;;20.60;99.90;;;;;;4993607;28;20541;-83
2021/09/10 04:25:07;;;;;;;9.13;6.78;;;20.50;99.90;;;;;;4992316;28;20267;-83
2021/09/10 04:27:33;;;;;;;9.93;6.32;;;20.60;99.90;;;;;;4993372;28;20169;-86
2021/09/10 04:29:58;;;;;;;10.48;6.65;;;20.60;99.90;;;;;;4993379;28;20195;-83
2021/09/10 04:32:24;;;;;;;9.30;6.28;;;20.70;99.90;;;;;;4992193;28;20169;-83
2021/09/10 04:34:50;;;;;;;15.85;6.75;;;20.80;99.90;;;;;;4993364;28;20165;-83
2021/09/10 04:37:16;;;;;;;10.75;6.25;;;20.60;99.90;;;;;;4992487;28;20177;-83
2021/09/10 04:39:42;;;;;;;9.73;6.68;;;20.70;99.90;;;;;;4992357;28;20232;-82
2021/09/10 04:42:08;;;;;;;9.85;6.28;;;20.60;99.90;;;;;;4992323;28;20173;-82
2021/09/10 04:44:34;;;;;;;12.48;6.82;;;20.60;99.90;;;;;;4992251;28;20209;-83
2021/09/10 04:46:59;;;;;;;10.77;5.50;;;20.60;99.90;;;;;;4993691;28;20172;-83
2021/09/10 04:49:25;;;;;;;8.55;6.05;;;20.60;99.90;;;;;;4993291;28;20189;-82
2021/09/10 04:51:51;;;;;;;11.52;5.28;;;20.70;99.90;;;;;;4992986;28;20169;-81
2021/09/10 04:54:16;;;;;;;5.70;5.20;;;20.80;99.90;;;;;;4993040;28;20514;-85
2021/09/10 04:56:43;;;;;;;7.78;4.70;;;20.80;99.90;;;;;;4994477;28;20170;-84
2021/09/10 04:59:09;;;;;;;7.32;4.15;;;20.90;99.90;;;;;;4993978;28;20272;-81
2021/09/10 05:01:35;;;;;;;14.93;4.22;;;20.80;99.90;;;;;;4992531;28;20260;-86
2021/09/10 05:04:00;;;;;;;9.57;4.60;;;20.80;99.90;;;;;;4993092;28;20176;-84
2021/09/10 05:06:28;;;;;;;6.45;4.30;;;20.80;99.90;;;;;;4994563;28;20181;-86
2021/09/10 05:08:54;;;;;;;11.70;4.82;;;20.60;99.90;;;;;;4992710;28;20204;-84
2021/09/10 05:11:20;;;;;;;4.82;4.05;;;20.70;99.90;;;;;;4994950;28;20177;-84
2021/09/10 05:13:45;;;;;;;14.35;4.22;;;20.80;99.90;;;;;;4992300;28;20611;-84
2021/09/10 05:16:11;;;;;;;7.00;4.28;;;20.80;99.90;;;;;;4993373;28;20180;-82
2021/09/10 05:18:36;;;;;;;5.35;4.85;;;20.80;99.90;;;;;;4998370;28;20177;-84
2021/09/10 05:21:02;;;;;;;10.05;4.65;;;20.60;99.90;;;;;;4995902;28;20692;-83
2021/09/10 05:23:28;;;;;;;7.10;4.53;;;20.70;99.90;;;;;;4995842;28;20169;-83
2021/09/10 05:25:53;;;;;;;8.93;4.40;;;20.80;99.90;;;;;;4996905;28;20263;-84
2021/09/10 05:28:19;;;;;;;6.70;3.97;;;20.80;99.90;;;;;;5001955;28;20193;-85
2021/09/10 05:30:44;;;;;;;8.32;3.78;;;20.80;99.90;;;;;;5001366;28;20307;-83
2021/09/10 05:33:10;;;;;;;11.85;4.50;;;20.70;99.90;;;;;;5004429;28;20169;-87
2021/09/10 05:35:36;;;;;;;12.30;4.97;;;20.60;99.90;;;;;;5003970;28;20183;-85
2021/09/10 05:38:01;;;;;;;13.32;4.00;;;20.70;99.90;;;;;;5005495;28;20240;-86
2021/09/10 05:40:27;;;;;;;7.60;5.10;;;20.80;99.90;;;;;;5007037;28;20161;-87
2021/09/10 05:42:52;;;;;;;5.70;5.03;;;20.70;99.90;;;;;;5009239;28;20177;-88
2021/09/10 05:45:18;;;;;;;13.93;5.18;;;20.40;99.90;;;;;;5008532;28;20267;-85
2021/09/10 05:47:44;;;;;;;6.43;5.07;;;20.40;99.90;;;;;;5010611;28;20169;-86
2021/09/10 05:50:10;;;;;;;9.80;4.93;;;20.50;99.90;;;;;;5006730;28;20664;-86
2021/09/10 05:52:35;;;;;;;11.10;5.00;;;20.50;99.90;;;;;;4997362;28;20638;-84
2021/09/10 05:55:01;;;;;;;6.10;5.03;;;20.70;99.90;;;;;;4998299;28;20173;-84
2021/09/10 05:57:27;;;;;;;6.00;5.35;;;20.80;99.90;;;;;;5000052;28;20677;-84
2021/09/10 05:59:52;;;;;;;5.85;4.97;;;20.70;99.90;;;;;;4997821;28;20189;-83
2021/09/10 06:02:18;;;;;;;12.88;4.70;;;20.80;99.90;;;;;;4996047;28;20173;-83
2021/09/10 06:04:45;;;;;;;5.80;5.00;;;20.90;99.90;;;;;;4996050;28;20660;-85
2021/09/10 06:07:12;;;;;;;10.68;5.03;;;20.90;99.90;;;;;;4996211;28;20212;-85
2021/09/10 06:09:37;;;;;;;8.15;5.70;;;20.90;99.90;;;;;;4996478;28;20193;-86
2021/09/10 06:12:05;;;;;;;9.63;5.97;;;21.00;99.90;;;;;;4996183;28;20222;-85
2021/09/10 06:14:31;;;;;;;6.18;5.50;;;21.10;99.90;;;;;;4997037;28;20634;-85
2021/09/10 06:16:57;;;;;;;8.02;5.72;;;21.20;99.90;;;;;;4980320;28;20178;-85
2021/09/10 06:19:22;;;;;;;9.73;5.95;;;21.20;99.90;;;;;;4996127;28;20192;-85
2021/09/10 06:21:48;;;;;;;7.30;5.80;;;21.40;99.90;;;;;;4995963;28;20173;-85
2021/09/10 06:24:13;;;;;;;10.25;5.55;;;21.50;99.90;;;;;;4994952;28;20196;-85
2021/09/10 06:26:39;;;;;;;8.70;5.35;;;21.40;99.90;;;;;;4994342;28;20173;-85
2021/09/10 06:29:05;;;;;;;11.45;6.20;;;21.30;99.90;;;;;;4994006;28;20181;-86
2021/09/10 06:31:30;;;;;;;6.70;5.38;;;21.30;99.90;;;;;;4995362;28;20177;-86
2021/09/10 06:33:56;;;;;;;11.55;4.80;;;21.40;99.90;;;;;;4994051;28;20169;-84
2021/09/10 06:36:22;;;;;;;11.23;5.90;;;21.40;99.90;;;;;;4993467;28;20302;-84
2021/09/10 06:38:47;;;;;;;6.90;5.57;;;21.30;99.90;;;;;;4994123;28;20241;-85
2021/09/10 06:41:13;;;;;;;6.90;5.45;;;21.40;99.90;;;;;;4995587;28;20269;-85
2021/09/10 06:43:39;;;;;;;5.93;5.18;;;21.40;99.90;;;;;;4994245;28;20602;-83
2021/09/10 06:46:04;;;;;;;7.85;5.20;;;21.50;99.90;;;;;;4993727;28;20244;-84
2021/09/10 06:48:30;;;;;;;9.77;5.05;;;21.50;99.90;;;;;;4992928;28;20201;-84
2021/09/10 06:50:56;;;;;;;6.20;4.85;;;21.40;99.90;;;;;;4995024;28;20257;-84
2021/09/10 06:53:22;;;;;;;7.78;4.80;;;21.50;99.90;;;;;;4995490;28;20256;-84
2021/09/10 06:55:47;;;;;;;5.53;4.47;;;21.50;99.90;;;;;;4994235;28;20178;-84
2021/09/10 06:58:13;;;;;;;6.65;4.10;;;21.50;99.90;;;;;;4994231;28;20189;-83
2021/09/10 07:00:38;;;;;;;8.88;4.97;;;21.60;99.90;;;;;;4993977;28;20177;-84
2021/09/10 07:03:04;;;;;;;7.82;5.30;;;21.60;99.90;;;;;;4993728;28;20621;-84
2021/09/10 07:05:30;;;;;;;12.10;5.38;;;21.70;99.90;;;;;;4993677;28;20359;-84
2021/09/10 07:07:55;;;;;;;9.80;5.38;;;22.00;99.90;;;;;;4993628;28;20189;-84
2021/09/10 07:10:23;;;;;;;13.43;5.90;;;22.10;99.90;;;;;;4993638;28;20278;-84
2021/09/10 07:12:49;;;;;;;6.28;4.93;;;22.20;99.90;;;;;;4994063;28;20192;-84
2021/09/10 07:15:14;;;;;;;7.97;5.30;;;22.20;99.90;;;;;;4994103;28;20227;-84
2021/09/10 07:17:40;;;;;;;10.30;4.90;;;22.10;99.90;;;;;;4995094;28;20165;-84
2021/09/10 07:20:06;;;;;;;14.75;5.13;;;22.10;99.90;;;;;;4993594;28;20185;-84
2021/09/10 07:22:32;;;;;;;7.65;4.90;;;22.10;99.90;;;;;;4993583;28;20536;-84
2021/09/10 07:24:57;;;;;;;7.40;4.47;;;22.40;99.90;;;;;;4993648;28;20235;-84
2021/09/10 07:27:23;;;;;;;5.57;4.97;;;22.40;99.90;;;;;;4993724;28;20267;-84
2021/09/10 07:29:49;;;;;;;6.70;5.35;;;22.50;99.90;;;;;;4993553;28;20311;-85
2021/09/10 07:32:14;;;;;;;10.77;6.22;;;22.60;99.90;;;;;;4997188;28;20169;-84
2021/09/10 07:34:40;;;;;;;5.32;4.68;;;22.60;99.90;;;;;;4993425;28;20197;-83
2021/09/10 07:37:06;;;;;;;14.27;5.30;;;22.50;99.90;;;;;;4993220;28;20177;-84
2021/09/10 07:39:31;;;;;;;8.55;4.70;;;22.60;99.90;;;;;;4993091;28;20196;-85
2021/09/10 07:41:57;;;;;;;5.20;4.70;;;22.60;99.90;;;;;;4993801;28;20580;-84
2021/09/10 07:44:23;;;;;;;5.70;5.05;;;22.70;99.90;;;;;;4994441;28;20731;-87
2021/09/10 07:46:52;;;;;;;5.70;4.70;;;22.90;99.90;;;;;;4994846;28;20272;-85
2021/09/10 07:49:19;;;;;;;16.85;5.10;;;22.90;99.90;;;;;;4994727;28;20667;-87
2021/09/10 07:51:46;;;;;;;10.40;5.30;;;23.10;99.90;;;;;;4994884;28;20404;-86
2021/09/10 07:54:11;;;;;;;8.07;5.93;;;23.10;99.90;;;;;;4994479;28;20169;-87
2021/09/10 07:56:37;;;;;;;10.30;5.93;;;23.20;99.90;;;;;;4995960;28;20177;-86
2021/09/10 07:59:03;;;;;;;7.72;6.50;;;23.00;99.90;;;;;;4994767;28;20196;-87
2021/09/10 08:01:28;;;;;;;12.27;5.25;;;22.90;99.90;;;;;;4994561;28;20545;-88
2021/09/10 08:03:54;;;;;;;9.75;5.95;;;22.90;99.90;;;;;;4994995;28;20169;-86
2021/09/10 08:06:19;;;;;;;7.22;5.65;;;23.00;99.90;;;;;;4996137;28;20626;-86
2021/09/10 08:08:45;;;;;;;16.40;6.15;;;22.90;99.90;;;;;;5008543;28;20189;-85
2021/09/10 08:11:11;;;;;;;6.07;5.35;;;22.80;99.90;;;;;;5008303;28;20165;-90
2021/09/10 08:13:39;;;;;;;18.67;6.00;;;23.10;99.90;;;;;;5016833;28;20185;-90
2021/09/10 08:16:05;;;;;;;12.68;5.28;;;23.30;99.90;;;;;;5013198;28;20581;-85
2021/09/10 08:18:31;;;;;;;9.13;5.72;;;23.30;99.90;;;;;;4995173;28;20212;-86
2021/09/10 08:20:57;;;;;;;8.77;5.68;;;23.20;99.90;;;;;;4995059;28;20188;-87
2021/09/10 08:23:26;;;;;;;8.52;6.40;;;23.30;99.90;;;;;;4995644;28;20173;-86
2021/09/10 08:25:52;;;;;;;9.80;5.93;;;23.20;99.90;;;;;;4993509;28;20205;-87
2021/09/10 08:28:18;;;;;;;11.68;6.32;;;23.40;99.90;;;;;;4996785;28;20553;-87
2021/09/10 08:30:46;;;;;;;15.13;6.53;;;23.30;99.90;;;;;;5014608;28;20227;-85
2021/09/10 08:33:13;;;;;;;10.85;6.53;;;23.10;99.90;;;;;;5010570;28;20271;-87
2021/09/10 08:35:39;;;;;;;11.93;7.35;;;23.00;99.90;;;;;;5013160;28;20183;-90
2021/09/10 08:38:05;;;;;;;10.63;7.18;;;22.90;99.90;;;;;;5010802;28;20188;-86
2021/09/10 08:40:32;;;;;;;9.02;6.25;;;22.80;99.90;;;;;;5011954;28;20204;-88
2021/09/10 08:42:59;;;;;;;10.73;7.40;;;22.90;99.90;;;;;;5012030;28;20179;-86
2021/09/10 08:45:32;;;;;;;15.32;8.23;;;22.80;99.90;;;;;;5011690;28;20204;-87
2021/09/10 08:47:57;;;;;;;11.15;6.53;;;23.00;99.90;;;;;;5013191;28;20196;-89
2021/09/10 08:50:25;;;;;;;11.82;7.30;;;23.20;99.90;;;;;;5012014;28;20264;-83
2021/09/10 08:52:51;;;;;;;9.82;6.70;;;23.30;99.90;;;;;;5011798;28;20211;-87
2021/09/10 08:55:17;;;;;;;13.90;7.70;;;23.20;99.90;;;;;;5012971;28;20248;-84
2021/09/10 08:57:51;;;;;;;18.42;8.38;;;23.40;99.90;;;;;;5011581;28;20259;-87
2021/09/10 09:00:25;;;;;;;15.45;9.18;;;23.30;99.90;;;;;;5024063;23;20148;-88
2021/09/10 09:03:05;;;;;;;14.70;9.68;;;23.20;99.90;;;;;;4994794;28;20177;-88
2021/09/10 09:05:35;;;;;;;10.68;7.88;;;23.30;99.90;;;;;;4994823;28;20212;-86
2021/09/10 09:08:08;;;;;;;11.73;7.82;;;23.20;99.90;;;;;;4994202;28;20193;-86
2021/09/10 09:11:01;;;;;;;14.00;8.13;;;23.20;99.90;;;;;;4988920;28;20208;-87
2021/09/10 09:13:38;;;;;;;14.05;8.68;;;23.30;99.90;;;;;;4993811;28;20192;-86
2021/09/10 09:16:30;;;;;;;20.67;7.93;;;23.10;99.90;;;;;;4992640;28;20179;-84
2021/09/10 09:19:07;;;;;;;13.43;8.32;;;23.00;99.90;;;;;;4993688;28;20276;-87
2021/09/10 09:21:37;;;;;;;13.63;8.63;;;22.80;99.90;;;;;;4992928;28;20173;-87
2021/09/10 09:24:18;;;;;;;11.35;8.27;;;22.90;99.90;;;;;;4992717;28;20201;-87
2021/09/10 09:26:45;;;;;;;17.98;10.60;;;22.90;99.90;;;;;;4992730;28;20192;-88
2021/09/10 09:29:17;;;;;;;14.90;9.60;;;22.90;99.90;;;;;;4992388;28;20327;-87
2021/09/10 09:31:57;;;;;;;13.93;9.80;;;22.90;99.90;;;;;;4992801;28;20188;-88
2021/09/10 09:34:43;;;;;;;15.48;9.43;;;22.90;99.90;;;;;;4993817;28;20188;-87
2021/09/10 09:37:08;;;;;;;17.38;9.82;;;23.10;99.90;;;;;;4992531;28;20195;-88
2021/09/10 09:39:56;;;;;;;11.82;9.25;;;22.90;99.90;;;;;;4993369;28;20201;-90
2021/09/10 09:42:29;;;;;;;17.15;9.63;;;22.70;99.90;;;;;;4992567;28;20253;-84
2021/09/10 09:45:11;;;;;;;19.90;10.32;;;22.80;99.90;;;;;;4992040;28;20703;-84
2021/09/10 09:47:38;;;;;;;14.77;9.93;;;22.90;99.90;;;;;;4992358;28;20536;-85
2021/09/10 09:50:09;;;;;;;17.05;9.95;;;22.80;99.90;;;;;;4992384;28;20260;-89
2021/09/10 09:52:35;;;;;;;13.48;10.63;;;22.80;99.90;;;;;;4992594;28;20226;-86
2021/09/10 09:55:06;;;;;;;11.88;10.30;;;22.60;99.90;;;;;;4993727;28;20169;-90
2021/09/10 09:57:34;;;;;;;16.02;11.35;;;22.30;99.90;;;;;;4994078;28;20165;-90
2021/09/10 10:00:05;;;;;;;14.77;11.00;;;22.40;99.90;;;;;;4992452;28;20653;-89
2021/09/10 10:02:32;;;;;;;17.92;11.10;;;22.20;99.90;;;;;;4992681;28;20223;-88
2021/09/10 10:04:59;;;;;;;16.77;10.40;;;22.20;99.90;;;;;;4996098;28;20217;-86
2021/09/10 10:07:49;;;;;;;15.07;10.68;;;21.80;99.90;;;;;;4995700;28;20200;-84
2021/09/10 10:10:20;;;;;;;16.85;10.80;;;21.80;99.90;;;;;;4994955;28;20173;-86
2021/09/10 10:12:49;;;;;;;15.32;12.27;;;22.00;99.90;;;;;;4995608;28;20176;-87
2021/09/10 10:15:20;;;;;;;18.42;10.95;;;22.10;99.90;;;;;;4997777;28;20166;-94
2021/09/10 10:17:46;;;;;;;18.65;10.50;;;22.20;99.90;;;;;;4998965;28;20241;-87
2021/09/10 10:20:20;;;;;;;19.38;11.38;;;21.90;99.90;;;;;;4998867;28;20200;-86
2021/09/10 10:22:47;;;;;;;15.07;11.68;;;21.70;99.90;;;;;;4999645;28;20192;-86
2021/09/10 10:25:13;;;;;;;20.65;10.70;;;21.80;99.90;;;;;;4998387;28;20204;-86
2021/09/10 10:27:46;;;;;;;21.48;10.50;;;21.70;99.90;;;;;;4996650;28;20182;-88
2021/09/10 10:30:15;;;;;;;13.25;10.38;;;21.70;99.90;;;;;;4997902;28;20161;-85
2021/09/10 10:32:58;;;;;;;13.68;10.07;;;21.70;99.90;;;;;;4998244;28;20231;-88
2021/09/10 10:35:38;;;;;;;21.00;10.95;;;21.70;99.90;;;;;;4997871;28;20169;-87
2021/09/10 10:38:05;;;;;;;18.17;10.32;;;21.70;99.90;;;;;;4997180;28;20200;-87
2021/09/10 10:40:53;;;;;;;13.00;10.10;;;21.90;99.90;;;;;;4998795;28;20223;-87
2021/09/10 10:43:22;;;;;;;18.02;10.93;;;21.80;99.90;;;;;;4996771;28;20626;-88
2021/09/10 10:45:59;;;;;;;14.88;10.68;;;21.80;99.90;;;;;;4996334;28;20244;-88
2021/09/10 10:48:36;;;;;;;16.90;10.70;;;21.70;99.90;;;;;;4997731;28;20192;-91
2021/09/10 10:51:04;;;;;;;14.65;9.60;;;21.70;99.90;;;;;;4996630;28;20172;-94
2021/09/10 10:53:48;;;;;;;15.57;10.25;;;21.80;99.90;;;;;;4995714;28;20169;-93
2021/09/10 10:56:28;;;;;;;13.32;10.65;;;21.70;99.90;;;;;;4997365;28;20540;-88
2021/09/10 10:59:24;;;;;;;17.67;10.00;;;21.80;99.90;;;;;;4997162;28;20275;-93
2021/09/10 11:02:36;;;;;;;16.85;9.15;;;22.00;99.90;;;;;;4994240;28;20719;-85
2021/09/10 11:05:08;;;;;;;15.38;10.20;;;22.10;99.90;;;;;;4995307;28;20220;-85
2021/09/10 11:07:34;;;;;;;15.15;9.82;;;22.20;99.90;;;;;;4994540;28;20626;-84
2021/09/10 11:10:05;;;;;;;12.50;9.82;;;22.30;99.90;;;;;;4994615;28;20256;-86
2021/09/10 11:12:33;;;;;;;17.20;10.52;;;22.10;99.90;;;;;;4994590;28;20172;-85
2021/09/10 11:15:00;;;;;;;19.38;11.57;;;22.30;99.90;;;;;;4993279;28;20166;-86
2021/09/10 11:17:27;;;;;;;21.63;10.70;;;22.20;99.90;;;;;;4993971;28;20181;-86
2021/09/10 11:19:55;;;;;;;16.02;10.52;;;22.40;99.90;;;;;;4994296;28;20204;-84
2021/09/10 11:22:21;;;;;;;21.27;11.63;;;22.70;99.90;;;;;;4993783;28;20231;-83
2021/09/10 11:24:47;;;;;;;18.92;11.35;;;23.20;99.90;;;;;;4994018;28;20204;-85
2021/09/10 11:27:28;;;;;;;21.25;11.98;;;23.20;99.90;;;;;;4993792;28;20276;-84
2021/09/10 11:29:54;;;;;;;15.68;12.13;;;23.30;99.90;;;;;;4993579;28;20701;-84
2021/09/10 11:32:24;;;;;;;15.55;11.82;;;23.40;99.90;;;;;;4994249;28;20173;-86
2021/09/10 11:34:51;;;;;;;22.63;12.48;;;23.50;99.90;;;;;;4994364;28;20177;-86
2021/09/10 11:37:27;;;;;;;12.45;10.75;;;23.60;99.90;;;;;;4993930;28;20176;-84
2021/09/10 11:39:54;;;;;;;16.00;11.85;;;23.90;99.90;;;;;;4995970;28;20203;-86
2021/09/10 11:42:37;;;;;;;12.88;11.30;;;24.00;99.90;;;;;;4994318;28;20260;-87
2021/09/10 11:45:14;;;;;;;18.35;12.43;;;23.90;99.90;;;;;;4994950;28;20649;-88
2021/09/10 11:47:41;;;;;;;17.15;11.38;;;24.10;99.90;;;;;;4994119;28;20165;-85
2021/09/10 11:50:11;;;;;;;18.30;12.38;;;24.40;99.90;;;;;;4993185;28;20633;-84
2021/09/10 11:52:41;;;;;;;13.15;10.90;;;24.80;99.90;;;;;;4993198;28;20166;-84
2021/09/10 11:55:12;;;;;;;21.27;12.60;;;24.80;99.90;;;;;;4994071;28;20640;-89
2021/09/10 11:57:39;;;;;;;17.77;11.43;;;24.80;99.90;;;;;;4993040;28;20166;-84
2021/09/10 12:00:07;;;;;;;20.67;11.48;;;24.80;99.90;;;;;;4992988;28;20593;-83
2021/09/10 12:02:33;;;;;;;12.77;10.63;;;24.80;99.90;;;;;;4993437;28;20173;-85
2021/09/10 12:05:01;;;;;;;9.82;8.88;;;24.80;99.90;;;;;;4992340;28;20209;-85
2021/09/10 12:07:31;;;;;;;10.80;7.22;;;25.20;99.90;;;;;;4995050;28;20204;-89
2021/09/10 12:09:56;;;;;;;12.63;6.13;;;25.00;99.90;;;;;;4994099;28;20193;-83
2021/09/10 12:12:27;;;;;;;14.88;7.63;;;25.10;99.90;;;;;;4994971;28;20188;-84
2021/09/10 12:14:52;;;;;;;6.60;5.95;;;25.20;99.90;;;;;;4995494;28;20182;-89
2021/09/10 12:17:20;;;;;;;9.32;7.00;;;25.40;99.90;;;;;;4996773;28;20231;-82
2021/09/10 12:20:07;;;;;;;6.95;6.22;;;25.00;99.90;;;;;;5013524;28;20212;-81
2021/09/10 12:22:42;;;;;;;7.68;5.70;;;25.00;99.90;;;;;;5015078;28;20204;-81
2021/09/10 12:25:26;;;;;;;7.82;5.07;;;25.00;99.90;;;;;;4999259;28;20215;-84
2021/09/10 12:28:13;;;;;;;5.57;4.82;;;25.40;99.90;;;;;;4996154;28;22547;-87
2021/09/10 12:31:05;;;;;;;5.07;4.57;;;25.70;99.90;;;;;;4984542;28;20187;-89
2021/09/10 12:33:32;;;;;;;14.27;5.03;;;25.60;99.90;;;;;;4993472;28;20583;-83
2021/09/10 12:36:01;;;;;;;4.45;4.13;;;25.40;99.90;;;;;;4992283;28;20545;-84
2021/09/10 12:38:38;;;;;;;5.93;3.88;;;25.40;99.90;;;;;;4992390;28;20199;-84
2021/09/10 12:41:04;;;;;;;8.57;4.65;;;25.20;99.90;;;;;;4992682;28;20714;-84
2021/09/10 12:43:30;;;;;;;5.03;4.40;;;25.20;99.90;;;;;;4994077;28;20681;-84
2021/09/10 12:45:56;;;;;;;6.18;4.88;;;25.30;99.90;;;;;;4993905;28;20312;-85